航空気象通報

ウインドサーファーのための航空気象通報による風予報です。

8/31-9/1の航空気象通報(国内、海外)

2007年08月31日 23時37分18秒 | TAF
羽田空港
TAF RJTT 310842Z 311812 35012KT 9999 FEW030 SCT050
BECMG 0003 05014KT
日本時間1日03-09時:350度から12ノットの風
09-12時:風が変化
12-21時:050度から14ノットの風


那覇空港
TAF ROAH 310840Z 311812 22008KT 9999 FEW020
TEMPO 0309 FEW020 FEW025CB
日本時間1日03-21時:220度から8ノットの風


マウイのカフルイ空港
PHOG 311134Z 311212 04010KT P6SM FEW040
FM2100 04015G25KT P6SM SCT050
FM0500 03010KT P6SM SKC
ハワイ時間31日02-11時:040度から10ノットの風
11-19時:040度から15ノット、突風25ノット
19時-1日02時:030度から10ノットの風


サイパン空港
PGSN 311124Z 311212 27004KT P6SM VCSH FEW020 SCT060 BKN180
マリアナ時間31日22時-1日22時:270度から4ノットの風


グアム空港
TAFPQ TAF PGUM 311124Z 311212 24004KT P6SM VCSH FEW017 SCT060 BKN180
マリアナ時間31日22時-1日22時:240度から4ノットの風

コメント
この記事をはてなブックマークに追加

8/30-31の航空気象通報(国内、海外)

2007年08月30日 23時39分52秒 | TAF
羽田空港
TAF RJTT 300848Z 301812 04009KT 9000 FEW010 SCT015 BKN025
TEMPO 1821 SHRA
BECMG 2124 12008KT
BECMG 0306 18018KT
日本時間31日03-06時:040度から9ノットの風
06-09時:風が変化
09-12時:120度から8ノットの風
12-15時:風が変化
15-21時:180度から18ノットの風
、但し、03-06時:一時、

那覇空港
TAF ROAH 300841Z 301812 22008KT 9999 FEW020
日本時間31日03-21時:220度から8ノットの風


マウイのカフルイ空港
PHOG 301132Z 301212 04008KT P6SM SKC
FM1800 03012G18KT P6SM FEW050
FM2100 03020G27KT P6SM SCT050
FM0600 04010KT P6SM SKC
ハワイ時間30日02-08時:040度から8ノットの風
08-11時:030度から12ノット、突風18ノット
11-20時:030度から20ノット、突風27ノット
20時-31日02時:040度から10ノットの風


サイパン空港
PGSN 301126Z 301212 24008KT P6SM VCSH SCT020CB SCT050
マリアナ時間30日22時-31日22時:240度から8ノットの風


グアム空港
TAFPQ TAF PGUM 301126Z 301212 25010KT P6SM VCSH SCT020CB BKN060
TEMPO 1620 25018KT 2SM +SHRA SCT015CB BKN025 OVC050
マリアナ時間30日22時-31日22時:250度から10ノットの風

但し、31日02-06時:一時、250度から18ノットの風、
コメント
この記事をはてなブックマークに追加

8/27-28の航空気象通報(国内、海外)

2007年08月27日 23時16分02秒 | TAF
明日から2日間、投稿をお休みします。

羽田空港
TAF RJTT 270837Z 271812 21010KT 9999 FEW020 SCT030 BKN050
BECMG 0912 04010KT
日本時間28日03-18時:210度から10ノットの風
18-21時:風が変化
21時:040度から10ノットの風


那覇空港
TAF ROAH 270841Z 271812 13004KT 9999 FEW020
BECMG 0306 32006KT
日本時間28日03-12時:130度から4ノットの風
12-15時:風が変化
15-21時:320度から6ノットの風


マウイのカフルイ空港
PHOG 271130Z 271212 12005KT P6SM SCT030
FM2000 02012KT P6SM SCT050
FM2200 03018KT P6SM SCT050
FM0600 03008KT P6SM SCT050
ハワイ時間27日02-10時:120度から5ノットの風
10-12時:020度から12ノットの風
12-20時:030度から18ノットの風
20時-28日02時:030度から8ノットの風


サイパン空港
PGSN 271120Z 271212 VRB03KT P6SM VCSH SCT020 SCT050
マリアナ時間27日22時-28日22時:風向不定3ノットの風


グアム空港
TAFPQ TAF PGUM 271120Z 271212 VRB04KT P6SM VCSH SCT020 SCT070
マリアナ時間27日22時-28日22時:風向不定4ノットの風

コメント
この記事をはてなブックマークに追加

8/26-27の航空気象通報(国内、海外)

2007年08月26日 22時45分08秒 | TAF
8/28-30までお出かけしますので、風予報はお休みします。

羽田空港
TAF RJTT 260840Z 261812 23004KT 9999 FEW030
BECMG 1821 34005KT
BECMG 2124 13008KT
BECMG 0306 19018KT
日本時間27日03時:230度から4ノットの風
03-06時:風が変化
06時:340度から5ノットの風
06-09時:風が変化
09-12時:130度から8ノットの風
12-15時:風が変化
15-21時:190度から18ノットの風


那覇空港
TAF ROAH 260845Z 261812 10006KT 9999 FEW020
BECMG 0306 08008KT
日本時間27日03-12時:100度から6ノットの風
12-15時:風が変化
15-21時:080度から8ノットの風


マウイのカフルイ空港
PHOG 261131Z 261212 VRB03KT P6SM SCT025 SCT050
FM2200 02012KT P6SM SCT050
FM0400 05005KT P6SM SCT050
FM0900 VRB03KT P6SM SCT050
ハワイ時間26日02-12時:風向不定3ノットの風
12-18時:020度から12ノットの風
18-23時:050度から5ノットの風
23時-27日02時:風向不定3ノットの風


サイパン空港
PGSN 261124Z 261212 VRB05KT P6SM VCSH SCT020 SCT060
マリアナ時間26日22時-27日22時:風向不定5ノットの風


グアム空港
TAFPQ TAF PGUM 261124Z 261212 33005KT P6SM VCSH SCT012 SCT060
マリアナ時間26日22時-27日22時:330度から5ノットの風

コメント
この記事をはてなブックマークに追加

8/25-26の航空気象通報(国内、海外)

2007年08月25日 22時10分46秒 | TAF
羽田空港
TAF RJTT 250843Z 251812 16006KT 9000 FEW020 SCT030
BECMG 1821 36004KT
BECMG 0003 14006KT
BECMG 0609 18016KT
日本時間26日03時:160度から6ノットの風
03-06時:風が変化
06-09時:360度から4ノットの風
09-12時:風が変化
12-15時:140度から6ノットの風
15-18時:風が変化
18-21時:180度から16ノットの風


那覇空港
TAF ROAH 250841Z 251812 14008KT 9999 FEW010 SCT015
日本時間26日03-21時:140度から8ノットの風


マウイのカフルイ空港
PHOG 251137Z 251212 VRB03KT P6SM SKC
FM1900 03009KT P6SM SCT050
FM2200 02015KT P6SM SCT050
FM0600 VRB03KT P6SM SKC
ハワイ時間25日02-09時:風向不定3ノットの風
09-12時:030度から9ノットの風
12-20時:020度から15ノットの風
20時-26日02時:風向不定3ノットの風


サイパン空港
PGSN 251135Z 251212 06008KT P6SM VCSH FEW020 BKN150
マリアナ時間25日22時-26日22時:060度から8ノットの風


グアム空港
TAFPQ TAF PGUM 251135Z 251212 06007KT P6SM VCSH FEW015 SCT050 BKN150
TEMPO 1214 05015KT 5SM SHRA SCT013 BKN030
マリアナ時間25日22時-26日22時:060度から7ノットの風

但し、24日22-24時:一時、050度から15ノットの風、
コメント
この記事をはてなブックマークに追加